Time;durP1;ratioP1;P1;durP2;ratioP2;P2;SDS_P1;SDS_P2;PMS_P1;PMS_P2;Temp;Humidity;BMP_temperature;BMP_pressure;BME280_temperature;BME280_humidity;BME280_pressure;Samples;Min_cycle;Max_cycle;Signal;HPM_P1;HPM_P2
2021/06/02 00:00:39;;;;;;;5.35;4.90;;;;;;;;;;2048067;28;20685;-64
2021/06/02 00:01:42;;;;;;;7.45;5.90;;;;;;;;;;2056110;28;20175;-64
2021/06/02 00:02:46;;;;;;;7.72;5.75;;;;;;;;;;2055257;28;20190;-64
2021/06/02 00:03:47;;;;;;;6.28;5.60;;;;;;;;;;2056211;28;20269;-63
2021/06/02 00:04:48;;;;;;;5.70;5.10;;;;;;;;;;2056687;28;20186;-65
2021/06/02 00:05:51;;;;;;;6.20;5.60;;;;;;;;;;2056492;28;20704;-64
2021/06/02 00:06:55;;;;;;;9.60;7.03;;;;;;;;;;2055889;28;20185;-64
2021/06/02 00:07:57;;;;;;;6.47;5.85;;;;;;;;;;2053346;28;20821;-63
2021/06/02 00:08:58;;;;;;;6.78;6.18;;;;;;;;;;2052913;28;20182;-65
2021/06/02 00:09:59;;;;;;;6.80;5.82;;;;;;;;;;2046684;28;20181;-63
2021/06/02 00:11:00;;;;;;;6.22;5.82;;;;;;;;;;2053166;28;20174;-63
2021/06/02 00:12:02;;;;;;;6.28;5.78;;;;;;;;;;2049355;29;20234;-64
2021/06/02 00:13:02;;;;;;;6.47;5.78;;;;;;;;;;2049717;28;20178;-63
2021/06/02 00:14:03;;;;;;;6.10;5.32;;;;;;;;;;2057073;28;20182;-61
2021/06/02 00:15:05;;;;;;;5.88;5.47;;;;;;;;;;2054099;28;20654;-63
2021/06/02 00:16:05;;;;;;;6.50;5.82;;;;;;;;;;2053423;28;20662;-64
2021/06/02 00:17:06;;;;;;;6.20;5.68;;;;;;;;;;2059334;28;20173;-64
2021/06/02 00:18:06;;;;;;;8.48;6.90;;;;;;;;;;2046228;28;20315;-65
2021/06/02 00:19:08;;;;;;;11.18;6.22;;;;;;;;;;2046321;28;20664;-64
2021/06/02 00:20:09;;;;;;;6.68;6.03;;;;;;;;;;2052744;28;20615;-64
2021/06/02 00:21:09;;;;;;;6.22;5.70;;;;;;;;;;2057703;28;20166;-64
2021/06/02 00:22:09;;;;;;;6.53;5.88;;;;;;;;;;2047938;28;20582;-65
2021/06/02 00:23:10;;;;;;;5.70;5.30;;;;;;;;;;2049818;28;20181;-65
2021/06/02 00:24:10;;;;;;;5.68;5.18;;;;;;;;;;2055625;28;20245;-64
2021/06/02 00:25:10;;;;;;;5.65;5.07;;;;;;;;;;2057089;28;20174;-65
2021/06/02 00:26:12;;;;;;;6.63;6.03;;;;;;;;;;2056647;28;20181;-64
2021/06/02 00:27:12;;;;;;;6.22;5.63;;;;;;;;;;2053665;28;20182;-65
2021/06/02 00:28:14;;;;;;;6.00;5.45;;;;;;;;;;2054737;28;20170;-66
2021/06/02 00:29:15;;;;;;;6.28;5.78;;;;;;;;;;2059719;28;20246;-63
2021/06/02 00:30:16;;;;;;;6.45;5.85;;;;;;;;;;2048072;28;20339;-64
2021/06/02 00:31:17;;;;;;;6.05;5.45;;;;;;;;;;2048624;28;20171;-64
2021/06/02 00:32:19;;;;;;;8.35;5.53;;;;;;;;;;2059009;28;20202;-63
2021/06/02 00:33:19;;;;;;;6.25;5.65;;;;;;;;;;2055811;28;20163;-64
2021/06/02 00:34:20;;;;;;;6.13;5.32;;;;;;;;;;2058956;28;20188;-64
2021/06/02 00:35:20;;;;;;;7.05;6.35;;;;;;;;;;2059213;28;20201;-63
2021/06/02 00:36:23;;;;;;;6.68;6.10;;;;;;;;;;2057249;28;20290;-63
2021/06/02 00:37:23;;;;;;;6.68;6.07;;;;;;;;;;2058383;28;20206;-61
2021/06/02 00:38:23;;;;;;;7.30;5.78;;;;;;;;;;2057788;28;20170;-64
2021/06/02 00:39:24;;;;;;;5.93;5.32;;;;;;;;;;2050771;28;20182;-62
2021/06/02 00:40:33;;;;;;;7.00;5.18;;;;;;;;;;2051048;28;20174;-64
2021/06/02 00:41:34;;;;;;;8.32;5.97;;;;;;;;;;2058473;28;20253;-63
2021/06/02 00:42:35;;;;;;;5.65;5.15;;;;;;;;;;2058350;28;20201;-64
2021/06/02 00:43:35;;;;;;;5.53;5.13;;;;;;;;;;2058135;28;20194;-61
2021/06/02 00:44:36;;;;;;;5.95;5.45;;;;;;;;;;2057438;28;20214;-63
2021/06/02 00:45:36;;;;;;;6.05;5.45;;;;;;;;;;2057921;28;20200;-59
2021/06/02 00:46:37;;;;;;;6.47;5.95;;;;;;;;;;2056235;28;20674;-62
2021/06/02 00:47:39;;;;;;;6.20;5.60;;;;;;;;;;2049403;28;20255;-61
2021/06/02 00:48:41;;;;;;;6.25;5.25;;;;;;;;;;2041989;29;20310;-64
2021/06/02 00:49:41;;;;;;;7.22;6.53;;;;;;;;;;2041697;29;20175;-64
2021/06/02 00:50:45;;;;;;;7.13;6.50;;;;;;;;;;2049664;29;20637;-63
2021/06/02 00:51:46;;;;;;;5.97;5.47;;;;;;;;;;2058228;28;20166;-63
2021/06/02 00:52:46;;;;;;;6.50;5.90;;;;;;;;;;2058096;28;20691;-63
2021/06/02 00:53:48;;;;;;;5.63;5.15;;;;;;;;;;2058097;28;20261;-63
2021/06/02 00:54:49;;;;;;;6.05;5.45;;;;;;;;;;2055273;28;20182;-63
2021/06/02 00:55:49;;;;;;;7.43;6.00;;;;;;;;;;2054072;28;20186;-62
2021/06/02 00:56:53;;;;;;;6.15;5.35;;;;;;;;;;2054638;28;20590;-59
2021/06/02 00:57:55;;;;;;;6.25;5.70;;;;;;;;;;2048912;28;20226;-62
2021/06/02 00:58:58;;;;;;;6.72;5.32;;;;;;;;;;2046953;29;20171;-64
2021/06/02 01:00:08;;;;;;;5.60;5.20;;;;;;;;;;2056778;28;20174;-63
2021/06/02 01:01:09;;;;;;;5.70;4.97;;;;;;;;;;2054065;28;20657;-62
2021/06/02 01:02:19;;;;;;;6.00;5.32;;;;;;;;;;2061357;28;20186;-63
2021/06/02 01:03:21;;;;;;;5.93;5.35;;;;;;;;;;2049268;28;20167;-63
2021/06/02 01:04:23;;;;;;;5.60;5.20;;;;;;;;;;2049768;28;20215;-62
2021/06/02 01:05:23;;;;;;;6.38;5.93;;;;;;;;;;2057440;28;20547;-64
2021/06/02 01:06:26;;;;;;;6.53;5.93;;;;;;;;;;2051623;28;20167;-64
2021/06/02 01:07:26;;;;;;;5.40;5.00;;;;;;;;;;2052192;28;20209;-64
2021/06/02 01:08:28;;;;;;;6.47;5.97;;;;;;;;;;2049934;28;20206;-64
2021/06/02 01:09:30;;;;;;;5.60;5.20;;;;;;;;;;2055285;28;20197;-64
2021/06/02 01:10:31;;;;;;;8.15;5.10;;;;;;;;;;2049476;29;20651;-60
2021/06/02 01:11:31;;;;;;;5.70;5.20;;;;;;;;;;2056638;28;20209;-60
2021/06/02 01:12:32;;;;;;;6.07;5.55;;;;;;;;;;2059363;28;20190;-64
2021/06/02 01:13:34;;;;;;;5.28;4.85;;;;;;;;;;2057840;28;20185;-57
2021/06/02 01:14:35;;;;;;;5.72;4.97;;;;;;;;;;2057344;28;20258;-64
2021/06/02 01:15:38;;;;;;;8.40;5.60;;;;;;;;;;2056107;28;20178;-63
2021/06/02 01:16:38;;;;;;;7.25;5.13;;;;;;;;;;2049208;29;20238;-63
2021/06/02 01:17:38;;;;;;;5.15;4.65;;;;;;;;;;2048968;29;20628;-64
2021/06/02 01:18:39;;;;;;;5.80;5.30;;;;;;;;;;2056935;28;20270;-64
2021/06/02 01:19:40;;;;;;;8.35;6.47;;;;;;;;;;2055996;28;20162;-64
2021/06/02 01:20:41;;;;;;;5.50;4.95;;;;;;;;;;2052959;28;20197;-64
2021/06/02 01:22:02;;;;;;;6.32;5.20;;;;;;;;;;2057519;28;20213;-64
2021/06/02 01:23:02;;;;;;;6.18;5.55;;;;;;;;;;2057596;28;20170;-63
2021/06/02 01:24:03;;;;;;;5.60;5.10;;;;;;;;;;2057616;28;20921;-58
2021/06/02 01:25:08;;;;;;;4.90;4.50;;;;;;;;;;2054683;28;20202;-65
2021/06/02 01:26:08;;;;;;;5.78;5.10;;;;;;;;;;2052245;28;20261;-63
2021/06/02 01:27:10;;;;;;;5.00;4.60;;;;;;;;;;2052964;28;20178;-65
2021/06/02 01:28:11;;;;;;;5.30;4.30;;;;;;;;;;2049472;29;20605;-65
2021/06/02 01:29:11;;;;;;;5.53;5.03;;;;;;;;;;2051901;28;20174;-66
2021/06/02 01:30:19;;;;;;;4.47;4.18;;;;;;;;;;2055376;28;20224;-65
2021/06/02 01:31:35;;;;;;;5.28;4.85;;;;;;;;;;2060445;28;20173;-62
2021/06/02 01:32:48;;;;;;;4.60;4.30;;;;;;;;;;2055479;28;20546;-64
2021/06/02 01:34:10;;;;;;;5.28;4.78;;;;;;;;;;2051034;28;20175;-64
2021/06/02 01:35:13;;;;;;;5.22;4.70;;;;;;;;;;2057800;28;20198;-63
2021/06/02 01:36:13;;;;;;;4.75;4.28;;;;;;;;;;2057762;28;20180;-65
2021/06/02 01:37:32;;;;;;;4.38;4.07;;;;;;;;;;2057691;28;20213;-66
2021/06/02 01:38:52;;;;;;;4.72;4.25;;;;;;;;;;2064082;28;20253;-65
2021/06/02 01:40:01;;;;;;;4.68;4.28;;;;;;;;;;2057887;28;20178;-64
2021/06/02 01:41:16;;;;;;;5.43;4.93;;;;;;;;;;2059947;28;20752;-64
2021/06/02 01:42:24;;;;;;;4.43;4.10;;;;;;;;;;2060104;28;20202;-63
2021/06/02 01:43:57;;;;;;;4.95;4.55;;;;;;;;;;2060345;28;20162;-65
2021/06/02 01:45:03;;;;;;;4.65;4.25;;;;;;;;;;2030461;29;20188;-63
2021/06/02 01:46:21;;;;;;;5.13;4.68;;;;;;;;;;2055786;28;20206;-64
2021/06/02 01:47:24;;;;;;;5.03;4.20;;;;;;;;;;2059578;28;20231;-64
2021/06/02 01:48:51;;;;;;;4.65;4.25;;;;;;;;;;2059743;28;20272;-63
2021/06/02 01:50:07;;;;;;;5.05;4.60;;;;;;;;;;2060847;28;20268;-64
2021/06/02 01:51:10;;;;;;;4.75;4.35;;;;;;;;;;2057972;28;20594;-64
2021/06/02 01:52:29;;;;;;;4.78;4.30;;;;;;;;;;2059638;28;20283;-65
2021/06/02 01:53:41;;;;;;;4.63;4.22;;;;;;;;;;2059184;28;20240;-62
2021/06/02 01:54:59;;;;;;;4.65;4.30;;;;;;;;;;2044860;29;20187;-63
2021/06/02 01:56:02;;;;;;;5.10;4.60;;;;;;;;;;2053736;28;20206;-63
2021/06/02 01:57:13;;;;;;;6.13;4.72;;;;;;;;;;2061444;28;20250;-63
2021/06/02 01:58:16;;;;;;;4.60;4.20;;;;;;;;;;2060565;28;20242;-65
2021/06/02 01:59:35;;;;;;;4.72;4.32;;;;;;;;;;2063316;28;20188;-64
2021/06/02 02:00:52;;;;;;;4.97;4.57;;;;;;;;;;2041925;28;20171;-63
2021/06/02 02:02:01;;;;;;;4.50;4.20;;;;;;;;;;2050269;28;20190;-65
2021/06/02 02:03:20;;;;;;;4.70;4.30;;;;;;;;;;2053252;28;20957;-65
2021/06/02 02:04:39;;;;;;;4.82;4.32;;;;;;;;;;2056715;28;20181;-65
2021/06/02 02:05:45;;;;;;;4.57;3.75;;;;;;;;;;2057737;28;20525;-63
2021/06/02 02:06:49;;;;;;;4.40;4.10;;;;;;;;;;2057985;28;20206;-65
2021/06/02 02:07:52;;;;;;;4.35;4.05;;;;;;;;;;2057568;28;20193;-65
2021/06/02 02:09:19;;;;;;;4.65;4.15;;;;;;;;;;2057471;28;20201;-64
2021/06/02 02:10:32;;;;;;;4.82;4.13;;;;;;;;;;2040968;29;20642;-64
2021/06/02 02:11:36;;;;;;;5.40;4.70;;;;;;;;;;2057271;28;20182;-63
2021/06/02 02:12:36;;;;;;;4.18;3.92;;;;;;;;;;2051244;28;20207;-65
2021/06/02 02:13:55;;;;;;;3.65;3.30;;;;;;;;;;2052222;29;20254;-65
2021/06/02 02:15:08;;;;;;;4.18;3.88;;;;;;;;;;2044066;29;20198;-65
2021/06/02 02:16:27;;;;;;;4.45;3.33;;;;;;;;;;2042963;29;20175;-65
2021/06/02 02:17:42;;;;;;;4.15;3.85;;;;;;;;;;2052472;28;20633;-65
2021/06/02 02:18:46;;;;;;;4.10;3.80;;;;;;;;;;2057158;28;20173;-64
2021/06/02 02:19:46;;;;;;;5.03;4.25;;;;;;;;;;2048083;29;20180;-64
2021/06/02 02:21:01;;;;;;;4.18;3.88;;;;;;;;;;2048454;28;20258;-65
2021/06/02 02:22:11;;;;;;;4.35;3.80;;;;;;;;;;2048911;28;20205;-65
2021/06/02 02:23:11;;;;;;;4.50;4.10;;;;;;;;;;2047470;28;20183;-64
2021/06/02 02:24:11;;;;;;;4.40;4.10;;;;;;;;;;2056923;28;20227;-65
2021/06/02 02:25:23;;;;;;;4.57;4.25;;;;;;;;;;2057061;28;20523;-65
2021/06/02 02:26:33;;;;;;;3.65;3.35;;;;;;;;;;2052468;28;20181;-65
2021/06/02 02:27:54;;;;;;;4.35;3.90;;;;;;;;;;2040826;29;20651;-64
2021/06/02 02:28:54;;;;;;;5.05;4.18;;;;;;;;;;2051640;28;20720;-62
2021/06/02 02:29:56;;;;;;;4.47;4.10;;;;;;;;;;2057416;28;20253;-65
2021/06/02 02:31:00;;;;;;;4.15;3.80;;;;;;;;;;2054266;28;20554;-64
2021/06/02 02:32:04;;;;;;;4.50;4.20;;;;;;;;;;2056786;28;20230;-64
2021/06/02 02:33:07;;;;;;;4.68;3.78;;;;;;;;;;2056990;28;20201;-64
2021/06/02 02:34:24;;;;;;;5.75;4.22;;;;;;;;;;2057284;28;20732;-64
2021/06/02 02:35:34;;;;;;;5.68;4.32;;;;;;;;;;2057611;28;20162;-65
2021/06/02 02:37:00;;;;;;;4.50;4.10;;;;;;;;;;2057432;28;20206;-64
2021/06/02 02:38:09;;;;;;;4.15;3.85;;;;;;;;;;2051289;28;20209;-65
2021/06/02 02:39:13;;;;;;;5.30;4.80;;;;;;;;;;2048759;28;20274;-65
2021/06/02 02:40:16;;;;;;;6.20;3.92;;;;;;;;;;2055679;28;20511;-65
2021/06/02 02:41:35;;;;;;;4.13;3.83;;;;;;;;;;2055123;28;20280;-65
2021/06/02 02:42:38;;;;;;;5.40;3.70;;;;;;;;;;2055173;28;20699;-64
2021/06/02 02:43:57;;;;;;;4.30;3.90;;;;;;;;;;2048404;28;20223;-66
2021/06/02 02:45:12;;;;;;;4.30;4.00;;;;;;;;;;2059276;28;20186;-65
2021/06/02 02:46:36;;;;;;;5.30;4.80;;;;;;;;;;2059617;28;20196;-64
2021/06/02 02:47:45;;;;;;;4.93;4.50;;;;;;;;;;2025002;29;20232;-63
2021/06/02 02:49:10;;;;;;;4.95;4.55;;;;;;;;;;2056618;28;20787;-63
2021/06/02 02:50:24;;;;;;;7.05;5.18;;;;;;;;;;2056990;28;20193;-63
2021/06/02 02:51:37;;;;;;;4.50;4.15;;;;;;;;;;2056060;28;20265;-63
2021/06/02 02:52:40;;;;;;;4.13;3.83;;;;;;;;;;2049622;28;20219;-63
2021/06/02 02:54:04;;;;;;;4.18;3.88;;;;;;;;;;2056545;28;20182;-64
2021/06/02 02:55:10;;;;;;;4.13;3.80;;;;;;;;;;2051265;28;20182;-65
2021/06/02 02:56:15;;;;;;;4.25;3.85;;;;;;;;;;2056489;28;20225;-64
2021/06/02 02:57:18;;;;;;;4.43;4.10;;;;;;;;;;2059676;28;20236;-65
2021/06/02 02:58:25;;;;;;;4.18;3.70;;;;;;;;;;2061725;28;20178;-65
2021/06/02 02:59:44;;;;;;;4.13;3.85;;;;;;;;;;2059178;28;20167;-64
2021/06/02 03:00:53;;;;;;;4.13;3.83;;;;;;;;;;2053116;28;20188;-64
2021/06/02 03:01:58;;;;;;;5.00;4.10;;;;;;;;;;2050056;28;22298;-62
2021/06/02 03:02:58;;;;;;;4.20;3.80;;;;;;;;;;2053441;28;20171;-64
2021/06/02 03:04:03;;;;;;;4.88;4.47;;;;;;;;;;2056470;28;20265;-65
2021/06/02 03:05:06;;;;;;;3.97;3.53;;;;;;;;;;2056115;28;20268;-64
2021/06/02 03:06:25;;;;;;;6.00;4.00;;;;;;;;;;2053523;28;20592;-64
2021/06/02 03:07:26;;;;;;;3.88;3.58;;;;;;;;;;2056099;28;20552;-63
2021/06/02 03:08:32;;;;;;;3.95;3.70;;;;;;;;;;2056932;28;20218;-65
2021/06/02 03:09:41;;;;;;;5.82;3.60;;;;;;;;;;2056936;28;20174;-64
2021/06/02 03:11:01;;;;;;;4.28;3.97;;;;;;;;;;2056310;28;20690;-64
2021/06/02 03:12:05;;;;;;;4.20;3.80;;;;;;;;;;2053285;28;20219;-65
2021/06/02 03:13:12;;;;;;;4.28;3.97;;;;;;;;;;2056157;28;20197;-64
2021/06/02 03:14:20;;;;;;;4.75;4.35;;;;;;;;;;2048623;28;20199;-63
2021/06/02 03:15:40;;;;;;;4.40;4.00;;;;;;;;;;2058373;28;20304;-64
2021/06/02 03:16:43;;;;;;;4.45;4.15;;;;;;;;;;2049490;28;20190;-65
2021/06/02 03:17:44;;;;;;;4.90;4.32;;;;;;;;;;2057257;28;20290;-64
2021/06/02 03:18:48;;;;;;;3.72;3.53;;;;;;;;;;2051336;28;20225;-64
2021/06/02 03:20:06;;;;;;;3.95;3.70;;;;;;;;;;2056484;28;20245;-64
2021/06/02 03:21:26;;;;;;;4.30;4.00;;;;;;;;;;2052722;28;20619;-65
2021/06/02 03:22:34;;;;;;;4.20;3.90;;;;;;;;;;2048189;28;20202;-65
2021/06/02 03:23:53;;;;;;;4.97;3.67;;;;;;;;;;2042273;28;20644;-63
2021/06/02 03:25:17;;;;;;;4.35;4.05;;;;;;;;;;2056105;28;20717;-64
2021/06/02 03:26:20;;;;;;;4.53;4.18;;;;;;;;;;2048708;28;20189;-63
2021/06/02 03:27:40;;;;;;;4.45;4.15;;;;;;;;;;2047820;28;20258;-64
2021/06/02 03:28:45;;;;;;;6.72;3.67;;;;;;;;;;2055670;28;20225;-64
2021/06/02 03:30:04;;;;;;;5.93;4.68;;;;;;;;;;2045668;28;20192;-64
2021/06/02 03:31:24;;;;;;;5.57;4.88;;;;;;;;;;2050567;28;20167;-62
2021/06/02 03:32:31;;;;;;;4.10;3.80;;;;;;;;;;2056572;28;20202;-61
2021/06/02 03:33:57;;;;;;;5.22;4.30;;;;;;;;;;2057501;28;20638;-62
2021/06/02 03:35:03;;;;;;;7.15;6.45;;;;;;;;;;2033518;29;20196;-62
2021/06/02 03:36:27;;;;;;;6.38;4.82;;;;;;;;;;2055860;28;20733;-62
2021/06/02 03:37:46;;;;;;;6.65;5.95;;;;;;;;;;2023269;29;20593;-63
2021/06/02 03:39:04;;;;;;;6.90;5.90;;;;;;;;;;2050603;28;20235;-63
2021/06/02 03:40:04;;;;;;;10.45;7.78;;;;;;;;;;2060262;28;20178;-63
2021/06/02 03:41:27;;;;;;;5.65;4.97;;;;;;;;;;2059929;28;20178;-62
2021/06/02 03:42:31;;;;;;;4.97;3.90;;;;;;;;;;2038997;29;20199;-62
2021/06/02 03:43:34;;;;;;;4.40;4.00;;;;;;;;;;2040394;28;20198;-62
2021/06/02 03:44:53;;;;;;;3.95;3.65;;;;;;;;;;2055274;28;20587;-64
2021/06/02 03:46:11;;;;;;;4.30;3.80;;;;;;;;;;2053221;28;20194;-64
2021/06/02 03:47:11;;;;;;;4.60;4.20;;;;;;;;;;2049144;28;20170;-64
2021/06/02 03:48:11;;;;;;;5.50;4.10;;;;;;;;;;2057199;28;20170;-62
2021/06/02 03:49:47;;;;;;;5.18;4.20;;;;;;;;;;2056330;28;20251;-65
2021/06/02 03:50:58;;;;;;;4.60;4.20;;;;;;;;;;2032972;29;20245;-61
2021/06/02 03:52:07;;;;;;;4.53;4.22;;;;;;;;;;2032344;29;20759;-63
2021/06/02 03:53:10;;;;;;;4.10;3.83;;;;;;;;;;2040028;28;20245;-62
2021/06/02 03:54:12;;;;;;;4.57;4.18;;;;;;;;;;2056013;28;20174;-63
2021/06/02 03:55:29;;;;;;;3.95;3.65;;;;;;;;;;2049128;28;20178;-60
2021/06/02 03:56:49;;;;;;;4.35;4.00;;;;;;;;;;2049253;28;20213;-64
2021/06/02 03:57:55;;;;;;;3.90;3.60;;;;;;;;;;2054613;28;20198;-64
2021/06/02 03:59:13;;;;;;;4.38;3.97;;;;;;;;;;2054464;28;20585;-62
2021/06/02 04:00:26;;;;;;;4.72;4.32;;;;;;;;;;2054604;28;20229;-64
2021/06/02 04:01:29;;;;;;;4.45;4.15;;;;;;;;;;2054288;28;20556;-64
2021/06/02 04:02:51;;;;;;;4.82;4.15;;;;;;;;;;2047276;28;20257;-63
2021/06/02 04:04:08;;;;;;;4.10;3.78;;;;;;;;;;2051317;28;20166;-64
2021/06/02 04:05:11;;;;;;;4.32;4.03;;;;;;;;;;2054905;28;20178;-64
2021/06/02 04:06:19;;;;;;;3.85;3.65;;;;;;;;;;2054290;28;20170;-63
2021/06/02 04:07:27;;;;;;;3.60;3.40;;;;;;;;;;2056787;28;20227;-64
2021/06/02 04:08:48;;;;;;;3.90;3.60;;;;;;;;;;2053758;28;20174;-65
2021/06/02 04:10:07;;;;;;;4.85;3.83;;;;;;;;;;2054611;28;20268;-64
2021/06/02 04:11:10;;;;;;;3.90;3.60;;;;;;;;;;2054994;28;20681;-64
2021/06/02 04:12:11;;;;;;;4.97;3.92;;;;;;;;;;2055594;28;20253;-63
2021/06/02 04:13:19;;;;;;;4.40;3.92;;;;;;;;;;2056186;28;20603;-65
2021/06/02 04:14:29;;;;;;;4.15;3.70;;;;;;;;;;2055129;28;20174;-64
2021/06/02 04:15:30;;;;;;;4.40;4.00;;;;;;;;;;2056891;28;20669;-64
2021/06/02 04:16:34;;;;;;;7.97;4.18;;;;;;;;;;2058984;28;20693;-64
2021/06/02 04:17:35;;;;;;;4.30;4.00;;;;;;;;;;2045191;29;20225;-64
2021/06/02 04:18:36;;;;;;;4.40;3.45;;;;;;;;;;2042764;28;20238;-64
2021/06/02 04:19:37;;;;;;;4.15;3.85;;;;;;;;;;2057931;28;20241;-65
2021/06/02 04:20:41;;;;;;;4.78;4.30;;;;;;;;;;2060353;28;20229;-65
2021/06/02 04:21:44;;;;;;;6.68;3.95;;;;;;;;;;2062330;28;20202;-64
2021/06/02 04:22:48;;;;;;;4.32;4.00;;;;;;;;;;2051548;28;20167;-66
2021/06/02 04:23:49;;;;;;;5.07;4.25;;;;;;;;;;2052270;28;20179;-64
2021/06/02 04:24:49;;;;;;;5.43;4.60;;;;;;;;;;2060746;28;20174;-65
2021/06/02 04:25:51;;;;;;;4.25;3.70;;;;;;;;;;2059879;28;20162;-63
2021/06/02 04:26:51;;;;;;;7.07;4.82;;;;;;;;;;2058557;28;20183;-63
2021/06/02 04:27:52;;;;;;;5.13;3.72;;;;;;;;;;2057865;28;20658;-63
2021/06/02 04:28:53;;;;;;;4.10;3.80;;;;;;;;;;2051400;28;20179;-63
2021/06/02 04:30:00;;;;;;;4.20;3.80;;;;;;;;;;2052547;28;20189;-64
2021/06/02 04:31:10;;;;;;;3.97;3.67;;;;;;;;;;2048990;29;20206;-64
2021/06/02 04:32:11;;;;;;;4.30;4.00;;;;;;;;;;2052957;28;20257;-64
2021/06/02 04:33:11;;;;;;;5.90;5.07;;;;;;;;;;2059406;28;20187;-64
2021/06/02 04:34:12;;;;;;;5.57;4.32;;;;;;;;;;2049932;28;20269;-64
2021/06/02 04:35:16;;;;;;;4.90;4.32;;;;;;;;;;2050300;28;20207;-64
2021/06/02 04:36:17;;;;;;;3.97;3.67;;;;;;;;;;2052058;29;20182;-65
2021/06/02 04:37:17;;;;;;;5.70;4.30;;;;;;;;;;2052440;28;20258;-64
2021/06/02 04:38:21;;;;;;;7.05;5.72;;;;;;;;;;2060431;28;20214;-64
2021/06/02 04:39:22;;;;;;;9.02;4.72;;;;;;;;;;2056189;28;20175;-63
2021/06/02 04:40:22;;;;;;;10.85;5.22;;;;;;;;;;2060211;28;20174;-65
2021/06/02 04:41:23;;;;;;;7.25;4.47;;;;;;;;;;2055324;28;20203;-66
2021/06/02 04:42:24;;;;;;;4.75;4.30;;;;;;;;;;2054256;28;20211;-65
2021/06/02 04:43:24;;;;;;;3.63;3.42;;;;;;;;;;2058852;28;20162;-64
2021/06/02 04:44:25;;;;;;;5.05;4.10;;;;;;;;;;2058436;28;20163;-64
2021/06/02 04:45:29;;;;;;;5.40;4.15;;;;;;;;;;2058115;28;20175;-61
2021/06/02 04:46:29;;;;;;;6.95;4.25;;;;;;;;;;2058692;28;20558;-64
2021/06/02 04:47:31;;;;;;;5.35;4.05;;;;;;;;;;2057083;28;20198;-64
2021/06/02 04:48:31;;;;;;;4.75;4.25;;;;;;;;;;2053619;28;20273;-64
2021/06/02 04:49:41;;;;;;;4.78;4.45;;;;;;;;;;2057693;28;20182;-64
2021/06/02 04:50:47;;;;;;;8.32;6.07;;;;;;;;;;2056399;28;20206;-64
2021/06/02 04:52:00;;;;;;;6.15;4.80;;;;;;;;;;2048818;28;20202;-65
2021/06/02 04:53:11;;;;;;;4.57;4.13;;;;;;;;;;2053935;23;23824;-63
2021/06/02 04:54:24;;;;;;;4.65;4.00;;;;;;;;;;2063942;28;20178;-60
2021/06/02 04:55:36;;;;;;;4.90;4.03;;;;;;;;;;2062066;28;20588;-60
2021/06/02 04:56:56;;;;;;;4.43;3.92;;;;;;;;;;2064063;28;20181;-62
2021/06/02 04:58:09;;;;;;;4.65;4.25;;;;;;;;;;2071104;28;20200;-62
2021/06/02 04:59:16;;;;;;;4.15;3.85;;;;;;;;;;2070692;28;20185;-62
2021/06/02 05:00:22;;;;;;;4.95;3.80;;;;;;;;;;2066433;28;20165;-61
2021/06/02 05:01:37;;;;;;;6.38;4.00;;;;;;;;;;2059639;28;20291;-57
2021/06/02 05:02:56;;;;;;;5.15;4.40;;;;;;;;;;2064187;28;20177;-58
2021/06/02 05:04:08;;;;;;;4.80;4.30;;;;;;;;;;2064619;28;20185;-60
2021/06/02 05:05:21;;;;;;;4.50;4.10;;;;;;;;;;2064337;28;20543;-59
2021/06/02 05:06:54;;;;;;;4.60;4.18;;;;;;;;;;2065219;28;20182;-60
2021/06/02 05:08:00;;;;;;;4.78;4.38;;;;;;;;;;2060393;28;20177;-60
2021/06/02 05:09:26;;;;;;;4.20;3.80;;;;;;;;;;2061878;28;20197;-59
2021/06/02 05:10:44;;;;;;;4.32;4.03;;;;;;;;;;2062473;28;20190;-61
2021/06/02 05:12:03;;;;;;;3.63;3.42;;;;;;;;;;2064265;28;20208;-60
2021/06/02 05:13:22;;;;;;;4.63;4.20;;;;;;;;;;2060775;28;20196;-59
2021/06/02 05:14:34;;;;;;;6.38;3.75;;;;;;;;;;2063915;28;20194;-61
2021/06/02 05:15:35;;;;;;;3.90;3.58;;;;;;;;;;2061955;28;20308;-61
2021/06/02 05:16:40;;;;;;;3.80;3.55;;;;;;;;;;2064224;28;20601;-60
2021/06/02 05:17:59;;;;;;;4.45;4.05;;;;;;;;;;2062858;28;20558;-59
2021/06/02 05:19:46;;;;;;;4.38;3.97;;;;;;;;;;2062879;28;20176;-60
2021/06/02 05:22:04;;;;;;;6.15;4.82;;;;;;;;;;2062902;28;20187;-61
2021/06/02 05:22:30;;;;;;;4.30;3.95;;;;;;;;;;2065775;28;20173;-60
2021/06/02 05:23:48;;;;;;;4.85;4.45;;;;;;;;;;2065432;28;20252;-57
2021/06/02 05:25:07;;;;;;;4.30;4.00;;;;;;;;;;2056405;28;20576;-61
2021/06/02 05:26:23;;;;;;;4.43;3.65;;;;;;;;;;2058533;28;20198;-61
2021/06/02 05:27:44;;;;;;;4.38;4.00;;;;;;;;;;2056110;28;20629;-57
2021/06/02 05:28:56;;;;;;;4.45;4.05;;;;;;;;;;2057029;28;20171;-59
2021/06/02 05:30:15;;;;;;;4.18;3.70;;;;;;;;;;2065658;28;20224;-61
2021/06/02 05:31:34;;;;;;;4.18;3.85;;;;;;;;;;2065756;28;20205;-60
2021/06/02 05:32:49;;;;;;;4.30;3.97;;;;;;;;;;2064517;28;20201;-59
2021/06/02 05:34:08;;;;;;;9.85;5.10;;;;;;;;;;2058031;28;20178;-59
2021/06/02 05:35:27;;;;;;;4.55;4.05;;;;;;;;;;2058321;28;20181;-59
2021/06/02 05:36:34;;;;;;;5.38;4.28;;;;;;;;;;2063923;28;20193;-61
2021/06/02 05:37:49;;;;;;;4.15;3.67;;;;;;;;;;2064645;28;20198;-59
2021/06/02 05:39:02;;;;;;;4.32;3.95;;;;;;;;;;2065893;28;20173;-61
2021/06/02 05:40:05;;;;;;;4.40;3.97;;;;;;;;;;2063425;28;20173;-59
2021/06/02 05:41:14;;;;;;;4.38;3.90;;;;;;;;;;2064928;28;20165;-58
2021/06/02 05:42:20;;;;;;;4.38;3.97;;;;;;;;;;2062765;28;20170;-63
2021/06/02 05:43:30;;;;;;;5.15;4.65;;;;;;;;;;2064639;28;20224;-61
2021/06/02 05:44:36;;;;;;;4.10;3.80;;;;;;;;;;2065016;28;20209;-62
2021/06/02 05:45:42;;;;;;;4.38;4.05;;;;;;;;;;2065637;28;20180;-60
2021/06/02 05:47:01;;;;;;;3.80;3.50;;;;;;;;;;2063111;28;20293;-57
2021/06/02 05:48:19;;;;;;;4.43;3.92;;;;;;;;;;2064420;28;20771;-60
2021/06/02 05:49:38;;;;;;;4.63;4.32;;;;;;;;;;2056146;28;20737;-59
2021/06/02 05:50:41;;;;;;;4.25;3.85;;;;;;;;;;2060756;28;20637;-52
2021/06/02 05:52:00;;;;;;;6.22;3.95;;;;;;;;;;2062556;28;20182;-56
2021/06/02 05:53:03;;;;;;;3.80;3.50;;;;;;;;;;2054516;28;20279;-59
2021/06/02 05:54:06;;;;;;;3.25;3.05;;;;;;;;;;2055736;28;20654;-56
2021/06/02 05:55:07;;;;;;;4.15;3.38;;;;;;;;;;2061665;28;20264;-56
2021/06/02 05:56:26;;;;;;;6.03;3.60;;;;;;;;;;2061916;28;20178;-57
2021/06/02 05:57:26;;;;;;;4.88;3.35;;;;;;;;;;2062738;28;20210;-58
2021/06/02 05:58:26;;;;;;;3.63;3.33;;;;;;;;;;2063499;28;20174;-55
2021/06/02 05:59:27;;;;;;;4.50;4.10;;;;;;;;;;2066502;28;20537;-56
2021/06/02 06:00:45;;;;;;;4.30;3.85;;;;;;;;;;2061536;28;20630;-57
2021/06/02 06:02:04;;;;;;;4.45;3.83;;;;;;;;;;2060265;28;20198;-58
2021/06/02 06:03:23;;;;;;;5.72;3.70;;;;;;;;;;2065474;28;20192;-53
2021/06/02 06:04:42;;;;;;;4.05;3.65;;;;;;;;;;2063888;28;20174;-56
2021/06/02 06:06:04;;;;;;;3.85;3.55;;;;;;;;;;2065326;28;20196;-60
2021/06/02 06:07:22;;;;;;;4.20;3.80;;;;;;;;;;2064085;28;20247;-59
2021/06/02 06:08:41;;;;;;;5.75;4.00;;;;;;;;;;2064383;28;20188;-62
2021/06/02 06:10:00;;;;;;;6.20;4.18;;;;;;;;;;2065672;28;20200;-61
2021/06/02 06:11:24;;;;;;;4.78;3.75;;;;;;;;;;2057030;28;20182;-63
2021/06/02 06:12:27;;;;;;;4.93;4.15;;;;;;;;;;2056353;28;20185;-62
2021/06/02 06:13:49;;;;;;;4.65;4.20;;;;;;;;;;2063691;28;20200;-61
2021/06/02 06:15:08;;;;;;;3.75;3.45;;;;;;;;;;2063501;28;20186;-58
2021/06/02 06:16:08;;;;;;;5.18;3.30;;;;;;;;;;2062925;28;20178;-61
2021/06/02 06:17:18;;;;;;;6.50;3.67;;;;;;;;;;2064030;28;20184;-59
2021/06/02 06:18:30;;;;;;;3.88;3.42;;;;;;;;;;2065278;28;20675;-63
2021/06/02 06:19:33;;;;;;;4.00;3.70;;;;;;;;;;2060654;28;20171;-63
2021/06/02 06:20:34;;;;;;;4.25;3.85;;;;;;;;;;2063414;28;20653;-59
2021/06/02 06:21:34;;;;;;;4.28;3.97;;;;;;;;;;2064367;28;20165;-59
2021/06/02 06:22:49;;;;;;;6.07;4.40;;;;;;;;;;2065524;28;20280;-61
2021/06/02 06:23:54;;;;;;;6.15;4.30;;;;;;;;;;2065122;28;20649;-60
2021/06/02 06:25:13;;;;;;;4.97;4.35;;;;;;;;;;2065430;28;20201;-63
2021/06/02 06:26:15;;;;;;;4.18;3.70;;;;;;;;;;2064868;28;20185;-58
2021/06/02 06:27:15;;;;;;;11.30;5.47;;;;;;;;;;2062399;28;20177;-61
2021/06/02 06:28:19;;;;;;;32.58;13.90;;;;;;;;;;2065080;28;20201;-60
2021/06/02 06:29:22;;;;;;;39.63;15.82;;;;;;;;;;2063481;28;20224;-63
2021/06/02 06:30:28;;;;;;;54.95;21.08;;;;;;;;;;2064873;28;20174;-58
2021/06/02 06:31:31;;;;;;;56.78;18.83;;;;;;;;;;2067581;28;20188;-60
2021/06/02 06:32:32;;;;;;;33.60;14.73;;;;;;;;;;2067193;28;20209;-60
2021/06/02 06:33:33;;;;;;;35.17;13.80;;;;;;;;;;2062632;28;20715;-61
2021/06/02 06:34:34;;;;;;;19.88;10.27;;;;;;;;;;2066152;28;20184;-61
2021/06/02 06:35:38;;;;;;;12.77;6.00;;;;;;;;;;2064189;28;20208;-63
2021/06/02 06:36:39;;;;;;;8.02;4.80;;;;;;;;;;2068003;28;20641;-59
2021/06/02 06:37:42;;;;;;;7.40;4.43;;;;;;;;;;2062731;28;20201;-63
2021/06/02 06:38:48;;;;;;;6.28;4.28;;;;;;;;;;2056604;28;20188;-62
2021/06/02 06:39:53;;;;;;;6.68;4.57;;;;;;;;;;2055723;28;20261;-60
2021/06/02 06:40:54;;;;;;;4.63;3.83;;;;;;;;;;2058005;28;20158;-65
2021/06/02 06:41:55;;;;;;;4.55;4.03;;;;;;;;;;2066791;28;20672;-62
2021/06/02 06:42:59;;;;;;;4.80;4.38;;;;;;;;;;2055683;28;20604;-64
2021/06/02 06:44:01;;;;;;;5.00;4.50;;;;;;;;;;2058921;28;20197;-63
2021/06/02 06:45:06;;;;;;;3.95;3.65;;;;;;;;;;2055865;28;20610;-61
2021/06/02 06:46:07;;;;;;;10.57;4.82;;;;;;;;;;2060194;28;20677;-64
2021/06/02 06:47:08;;;;;;;4.40;4.00;;;;;;;;;;2055939;28;20245;-63
2021/06/02 06:48:13;;;;;;;4.32;4.03;;;;;;;;;;2057115;28;20163;-63